createdAt,value
2019-04-05T00:01:57.614Z,22.93
2019-04-05T00:04:26.792Z,24.80
2019-04-05T00:06:55.329Z,22.87
2019-04-05T00:09:23.236Z,24.47
2019-04-05T00:11:51.470Z,22.60
2019-04-05T00:14:19.484Z,22.10
2019-04-05T00:16:47.574Z,22.00
2019-04-05T00:19:15.848Z,22.17
2019-04-05T00:21:45.132Z,22.43
2019-04-05T00:24:13.147Z,24.45
2019-04-05T00:26:41.137Z,22.40
2019-04-05T00:29:09.396Z,22.50
2019-04-05T00:31:37.322Z,22.07
2019-04-05T00:34:05.335Z,21.60
2019-04-05T00:36:33.335Z,21.80
2019-04-05T00:39:01.620Z,22.83
2019-04-05T00:41:32.819Z,21.87
2019-04-05T00:44:00.134Z,20.47
2019-04-05T00:46:28.622Z,24.60
2019-04-05T00:48:56.940Z,27.67
2019-04-05T00:51:26.014Z,24.50
2019-04-05T00:53:54.637Z,27.30
2019-04-05T00:56:22.745Z,29.37
2019-04-05T00:58:51.081Z,24.57
2019-04-05T01:01:19.203Z,27.52
2019-04-05T01:03:47.292Z,26.50
2019-04-05T01:06:15.299Z,23.75
2019-04-05T01:08:43.424Z,23.15
2019-04-05T01:11:11.522Z,27.80
2019-04-05T01:13:40.893Z,29.20
2019-04-05T01:16:08.897Z,21.95
2019-04-05T01:18:37.025Z,31.05
2019-04-05T01:21:07.682Z,24.27
2019-04-05T01:23:35.806Z,24.63
2019-04-05T01:26:03.922Z,25.00
2019-04-05T01:28:32.243Z,22.50
2019-04-05T01:31:00.389Z,23.18
2019-04-05T01:33:28.511Z,26.50
2019-04-05T01:35:56.527Z,32.17
2019-04-05T01:38:24.546Z,28.65
2019-04-05T01:40:55.794Z,23.75
2019-04-05T01:43:24.018Z,32.85
2019-04-05T01:45:54.076Z,26.82
2019-04-05T01:48:22.354Z,22.90
2019-04-05T01:50:50.476Z,27.07
2019-04-05T01:53:18.501Z,23.65
2019-04-05T01:55:46.905Z,24.02
2019-04-05T01:58:15.006Z,25.10
2019-04-05T02:00:43.446Z,30.70
2019-04-05T02:03:12.101Z,26.87
2019-04-05T02:05:40.470Z,22.80
2019-04-05T02:08:08.630Z,24.05
2019-04-05T02:10:36.760Z,30.40
2019-04-05T02:13:05.004Z,36.38
2019-04-05T02:15:34.641Z,30.75
2019-04-05T02:18:02.750Z,30.17
2019-04-05T02:20:30.875Z,28.50
2019-04-05T02:22:59.079Z,27.30
2019-04-05T02:25:27.704Z,32.63
2019-04-05T02:27:56.104Z,33.15
2019-04-05T02:30:25.507Z,32.65
2019-04-05T02:32:54.203Z,34.63
2019-04-05T02:35:22.576Z,28.30
2019-04-05T02:37:51.498Z,36.10
2019-04-05T02:40:23.017Z,32.87
2019-04-05T02:42:54.577Z,35.78
2019-04-05T02:45:24.111Z,36.00
2019-04-05T02:47:55.840Z,37.85
2019-04-05T02:50:28.156Z,41.80
2019-04-05T02:52:59.904Z,40.70
2019-04-05T02:55:29.038Z,40.88
2019-04-05T02:57:58.794Z,41.42
2019-04-05T03:00:27.150Z,43.30
2019-04-05T03:02:55.359Z,47.90
2019-04-05T03:05:24.267Z,48.35
2019-04-05T03:07:52.374Z,45.12
2019-04-05T03:10:56.824Z,42.48
2019-04-05T03:13:26.879Z,45.45
2019-04-05T03:15:58.601Z,45.35
2019-04-05T03:18:28.844Z,42.15
2019-04-05T03:20:59.823Z,48.85
2019-04-05T03:23:29.526Z,45.58
2019-04-05T03:26:01.385Z,46.18
2019-04-05T03:28:32.671Z,45.23
2019-04-05T03:31:01.434Z,45.28
2019-04-05T03:33:30.166Z,46.13
2019-04-05T03:35:58.277Z,48.58
2019-04-05T03:38:26.633Z,44.20
2019-04-05T03:40:55.436Z,46.13
2019-04-05T03:43:23.907Z,43.28
2019-04-05T03:45:52.539Z,42.20
2019-04-05T03:48:21.295Z,44.58
2019-04-05T03:50:50.311Z,41.00
2019-04-05T03:53:18.812Z,42.50
2019-04-05T03:55:47.509Z,37.70
2019-04-05T03:58:16.131Z,39.45
2019-04-05T04:00:46.877Z,42.17
2019-04-05T04:03:14.314Z,43.20
2019-04-05T04:05:43.308Z,43.95
2019-04-05T04:08:11.434Z,40.83
2019-04-05T04:10:40.234Z,42.00
2019-04-05T04:13:08.619Z,42.27
2019-04-05T04:15:37.876Z,40.80
2019-04-05T04:18:06.151Z,40.67
2019-04-05T04:20:38.734Z,41.45
2019-04-05T04:23:07.722Z,43.45
2019-04-05T04:25:37.545Z,43.40
2019-04-05T04:28:06.155Z,44.90
2019-04-05T04:30:35.319Z,39.53
2019-04-05T04:33:03.655Z,44.23
2019-04-05T04:35:32.059Z,39.70
2019-04-05T04:38:00.502Z,40.38
2019-04-05T04:40:28.609Z,45.47
2019-04-05T04:42:56.826Z,41.70
2019-04-05T04:45:25.726Z,41.73
2019-04-05T04:47:53.943Z,46.73
2019-04-05T04:50:22.777Z,44.40
2019-04-05T04:52:51.959Z,41.92
2019-04-05T04:55:20.423Z,38.60
2019-04-05T04:57:49.103Z,42.33
2019-04-05T05:00:17.728Z,38.45
2019-04-05T05:02:46.594Z,41.58
2019-04-05T05:05:15.336Z,40.73
2019-04-05T05:07:44.067Z,44.33
2019-04-05T05:10:12.697Z,37.85
2019-04-05T05:12:41.451Z,40.03
2019-04-05T05:15:10.116Z,41.37
2019-04-05T05:17:39.214Z,35.95
2019-04-05T05:20:07.637Z,37.20
2019-04-05T05:22:36.114Z,41.70
2019-04-05T05:25:05.285Z,36.80
2019-04-05T05:27:34.313Z,43.13
2019-04-05T05:30:03.158Z,37.88
2019-04-05T05:32:31.853Z,39.98
2019-04-05T05:35:02.172Z,39.30
2019-04-05T05:37:32.816Z,42.90
2019-04-05T05:40:01.530Z,40.93
2019-04-05T05:42:30.147Z,41.93
2019-04-05T05:44:58.798Z,44.23
2019-04-05T05:47:27.298Z,37.55
2019-04-05T05:49:55.464Z,45.52
2019-04-05T05:52:24.849Z,42.27
2019-04-05T05:54:53.693Z,43.20
2019-04-05T05:57:21.826Z,42.05
2019-04-05T05:59:50.217Z,43.70
2019-04-05T06:02:18.433Z,40.12
2019-04-05T06:04:47.700Z,49.03
2019-04-05T06:07:15.978Z,43.13
2019-04-05T06:09:44.339Z,42.15
2019-04-05T06:12:13.783Z,43.87
2019-04-05T06:14:42.723Z,43.90
2019-04-05T06:17:11.247Z,48.73
2019-04-05T06:19:39.587Z,48.27
2019-04-05T06:22:07.997Z,49.53
2019-04-05T06:24:36.158Z,44.93
2019-04-05T06:27:04.520Z,49.88
2019-04-05T06:29:32.693Z,47.38
2019-04-05T06:32:01.154Z,41.37
2019-04-05T06:34:29.797Z,52.15
2019-04-05T06:36:58.186Z,55.95
2019-04-05T06:39:26.354Z,53.33
2019-04-05T06:41:54.804Z,58.30
2019-04-05T06:44:23.077Z,56.20
2019-04-05T06:46:51.411Z,51.47
2019-04-05T06:49:20.158Z,60.70
2019-04-05T06:51:48.589Z,57.07
2019-04-05T06:54:16.511Z,54.90
2019-04-05T06:56:44.429Z,61.35
2019-04-05T06:59:12.631Z,59.05
2019-04-05T07:01:41.102Z,57.88
2019-04-05T07:04:10.062Z,58.10
2019-04-05T07:06:37.986Z,53.60
2019-04-05T07:09:08.525Z,70.80
2019-04-05T07:11:35.832Z,51.97
2019-04-05T07:14:03.052Z,52.63
2019-04-05T07:16:31.188Z,56.23
2019-04-05T07:18:59.218Z,51.87
2019-04-05T07:21:27.249Z,44.67
2019-04-05T07:23:55.405Z,49.90
2019-04-05T07:26:23.697Z,45.83
2019-04-05T07:28:51.870Z,43.70
2019-04-05T07:31:20.037Z,41.40
2019-04-05T07:33:48.781Z,39.57
2019-04-05T07:36:17.374Z,34.20
2019-04-05T07:38:45.787Z,32.80
2019-04-05T07:41:14.013Z,38.47
2019-04-05T07:43:41.928Z,39.57
2019-04-05T07:46:10.028Z,34.07
2019-04-05T07:48:44.749Z,31.73
2019-04-05T07:51:08.318Z,31.50
2019-04-05T07:53:36.457Z,31.47
2019-04-05T07:56:04.560Z,33.30
2019-04-05T07:58:32.585Z,32.73
2019-04-05T08:01:06.692Z,35.03
2019-04-05T08:03:34.706Z,33.80
2019-04-05T08:06:03.162Z,35.57
2019-04-05T08:09:02.299Z,30.47
2019-04-05T08:11:29.844Z,33.63
2019-04-05T08:13:59.327Z,30.80
2019-04-05T08:16:28.836Z,35.43
2019-04-05T08:18:57.974Z,28.23
2019-04-05T08:21:25.047Z,29.70
2019-04-05T08:23:51.999Z,27.53
2019-04-05T08:26:19.035Z,27.07
2019-04-05T08:28:46.011Z,24.00
2019-04-05T08:31:14.533Z,25.33
2019-04-05T08:33:43.393Z,24.70
2019-04-05T08:36:10.408Z,24.77
2019-04-05T08:38:39.660Z,22.73
2019-04-05T08:41:06.304Z,23.47
2019-04-05T08:43:33.210Z,24.50
2019-04-05T08:46:00.123Z,25.07
2019-04-05T08:48:30.788Z,26.57
2019-04-05T08:50:57.905Z,25.37
2019-04-05T08:53:24.801Z,23.30
2019-04-05T08:55:51.801Z,24.93
2019-04-05T08:58:19.190Z,26.40
2019-04-05T09:00:46.114Z,21.83
2019-04-05T09:03:14.655Z,24.53
2019-04-05T09:05:42.950Z,26.67
2019-04-05T09:08:09.963Z,21.80
2019-04-05T09:10:37.883Z,27.37
2019-04-05T09:13:06.091Z,28.20
2019-04-05T09:15:34.069Z,25.93
2019-04-05T09:18:05.886Z,28.00
2019-04-05T09:20:33.889Z,24.00
2019-04-05T09:23:01.985Z,29.50
2019-04-05T09:25:30.072Z,29.10
2019-04-05T09:27:57.965Z,27.00
2019-04-05T09:30:30.083Z,25.83
2019-04-05T09:32:58.122Z,28.20
2019-04-05T09:35:26.153Z,30.60
2019-04-05T09:37:54.064Z,23.27
2019-04-05T09:40:22.049Z,28.13
2019-04-05T09:42:51.123Z,26.50
2019-04-05T09:45:20.697Z,30.20
2019-04-05T09:47:49.049Z,29.87
2019-04-05T09:50:17.249Z,26.17
2019-04-05T09:52:45.180Z,26.60
2019-04-05T09:55:13.205Z,27.80
2019-04-05T09:57:41.234Z,28.37
2019-04-05T10:00:16.450Z,29.57
2019-04-05T10:02:44.602Z,26.80
2019-04-05T10:05:13.126Z,23.13
2019-04-05T10:07:54.203Z,24.80
2019-04-05T10:10:14.262Z,24.70
2019-04-05T10:12:42.700Z,24.60
2019-04-05T10:15:11.034Z,23.80
2019-04-05T10:17:39.919Z,26.73
2019-04-05T10:20:08.124Z,20.40
2019-04-05T10:22:39.057Z,22.70
2019-04-05T10:25:07.552Z,23.20
2019-04-05T10:27:36.825Z,26.07
2019-04-05T10:30:07.797Z,24.57
2019-04-05T10:32:36.096Z,23.03
2019-04-05T10:35:06.002Z,22.97
2019-04-05T10:37:33.922Z,23.30
2019-04-05T10:40:03.638Z,24.30
2019-04-05T10:42:32.480Z,22.40
2019-04-05T10:45:02.417Z,25.03
2019-04-05T10:47:33.625Z,22.43
2019-04-05T10:50:03.581Z,23.00
2019-04-05T10:52:31.993Z,23.77
2019-04-05T10:54:59.889Z,27.83
2019-04-05T10:57:28.013Z,27.23
2019-04-05T10:59:57.427Z,28.67
2019-04-05T11:02:25.341Z,26.43
2019-04-05T11:04:53.251Z,25.83
2019-04-05T11:07:21.477Z,30.43
2019-04-05T11:09:49.613Z,25.03
2019-04-05T11:12:20.942Z,25.47
2019-04-05T11:14:48.997Z,28.00
2019-04-05T11:17:17.007Z,29.20
2019-04-05T11:19:45.056Z,30.30
2019-04-05T11:22:13.318Z,29.30
2019-04-05T11:24:45.578Z,27.90
2019-04-05T11:27:13.637Z,25.57
2019-04-05T11:29:41.792Z,27.73
2019-04-05T11:32:09.930Z,21.03
2019-04-05T11:34:37.973Z,26.57
2019-04-05T11:37:06.082Z,24.37
2019-04-05T11:39:36.197Z,24.97
2019-04-05T11:42:04.386Z,25.33
2019-04-05T11:44:32.965Z,19.00
2019-04-05T11:47:02.510Z,21.00
2019-04-05T11:49:37.453Z,23.17
2019-04-05T11:52:05.560Z,21.37
2019-04-05T11:54:33.834Z,22.33
2019-04-05T11:57:01.945Z,17.80
2019-04-05T11:59:29.882Z,17.97
2019-04-05T12:02:07.143Z,22.23
2019-04-05T12:04:35.057Z,18.80
2019-04-05T12:07:03.903Z,16.70
2019-04-05T12:09:32.461Z,16.47
2019-04-05T12:12:00.910Z,15.93
2019-04-05T12:14:34.516Z,16.93
2019-04-05T12:17:05.272Z,20.90
2019-04-05T12:19:33.620Z,16.77
2019-04-05T12:22:04.539Z,15.90
2019-04-05T12:24:36.612Z,18.60
2019-04-05T12:27:05.597Z,18.53
2019-04-05T12:29:33.834Z,14.87
2019-04-05T12:32:02.074Z,18.80
2019-04-05T12:34:30.096Z,17.10
2019-04-05T12:37:01.850Z,13.73
2019-04-05T12:39:29.954Z,15.50
2019-04-05T12:41:58.117Z,20.20
2019-04-05T12:44:27.203Z,22.00
2019-04-05T12:46:55.134Z,25.53
2019-04-05T12:49:24.937Z,30.13
2019-04-05T12:51:56.310Z,29.53
2019-04-05T12:54:24.696Z,30.30
2019-04-05T12:56:54.285Z,28.53
2019-04-05T12:59:25.204Z,32.87
2019-04-05T13:01:53.746Z,25.90
2019-04-05T13:04:22.960Z,28.40
2019-04-05T13:06:53.012Z,26.40
2019-04-05T13:09:23.542Z,27.17
2019-04-05T13:11:56.514Z,27.63
2019-04-05T13:14:26.137Z,22.93
2019-04-05T13:16:53.036Z,28.37
2019-04-05T13:19:21.173Z,26.30
2019-04-05T13:21:49.511Z,21.80
2019-04-05T13:24:18.277Z,23.07
2019-04-05T13:26:46.405Z,29.43
2019-04-05T13:29:14.846Z,32.83
2019-04-05T13:31:43.349Z,28.97
2019-04-05T13:34:11.681Z,29.53
2019-04-05T13:36:40.225Z,38.97
2019-04-05T13:39:08.345Z,33.67
2019-04-05T13:41:36.557Z,36.20
2019-04-05T13:44:06.083Z,34.57
2019-04-05T13:46:38.294Z,40.50
2019-04-05T13:49:04.673Z,37.50
2019-04-05T13:51:32.962Z,37.53
2019-04-05T13:54:01.202Z,48.30
2019-04-05T13:56:29.750Z,34.53
2019-04-05T13:58:58.146Z,42.37
2019-04-05T14:01:26.703Z,39.70
2019-04-05T14:03:55.375Z,36.17
2019-04-05T14:06:24.969Z,35.47
2019-04-05T14:08:53.614Z,42.17
2019-04-05T14:11:22.442Z,42.30
2019-04-05T14:13:50.757Z,45.90
2019-04-05T14:16:18.926Z,34.00
2019-04-05T14:18:49.728Z,38.70
2019-04-05T14:21:20.631Z,33.27
2019-04-05T14:23:48.541Z,32.70
2019-04-05T14:26:16.995Z,31.17
2019-04-05T14:28:45.093Z,29.40
2019-04-05T14:31:13.274Z,28.53
2019-04-05T14:33:41.905Z,27.80
2019-04-05T14:36:10.524Z,28.03
2019-04-05T14:38:39.232Z,26.80
2019-04-05T14:41:08.460Z,26.97
2019-04-05T14:43:37.903Z,27.20
2019-04-05T14:46:06.993Z,35.53
2019-04-05T14:48:35.360Z,26.50
2019-04-05T14:51:03.787Z,31.90
2019-04-05T14:53:32.756Z,27.70
2019-04-05T14:56:01.391Z,32.37
2019-04-05T14:58:29.794Z,35.87
2019-04-05T15:00:58.266Z,31.97
2019-04-05T15:03:26.950Z,32.57
2019-04-05T15:05:55.631Z,36.80
2019-04-05T15:08:25.211Z,33.70
2019-04-05T15:10:56.608Z,33.63
2019-04-05T15:13:24.355Z,29.80
2019-04-05T15:15:53.322Z,32.80
2019-04-05T15:18:24.562Z,32.23
2019-04-05T15:20:53.133Z,33.27
2019-04-05T15:23:21.882Z,28.17
2019-04-05T15:25:50.778Z,29.83
2019-04-05T15:28:19.474Z,31.67
2019-04-05T15:30:49.507Z,32.27
2019-04-05T15:33:18.605Z,26.20
2019-04-05T15:35:47.541Z,35.73
2019-04-05T15:38:16.066Z,30.80
2019-04-05T15:40:44.678Z,30.20
2019-04-05T15:43:13.378Z,29.70
2019-04-05T15:45:42.803Z,26.90
2019-04-05T15:48:12.004Z,25.83
2019-04-05T15:50:40.386Z,26.87
2019-04-05T15:53:08.711Z,27.67
2019-04-05T15:55:37.202Z,27.63
2019-04-05T15:58:05.722Z,25.83
2019-04-05T16:00:44.460Z,31.53
2019-04-05T16:03:13.398Z,30.70
2019-04-05T16:05:42.977Z,26.33
2019-04-05T16:08:11.389Z,30.77
2019-04-05T16:10:39.881Z,30.00
2019-04-05T16:13:09.448Z,27.33
2019-04-05T16:15:38.109Z,30.43
2019-04-05T16:18:06.639Z,26.03
2019-04-05T16:20:34.909Z,27.20
2019-04-05T16:23:03.319Z,30.30
2019-04-05T16:25:33.979Z,31.37
2019-04-05T16:28:02.738Z,26.40
2019-04-05T16:30:30.766Z,28.17
2019-04-05T16:32:58.821Z,32.10
2019-04-05T16:35:26.752Z,30.70
2019-04-05T16:37:55.171Z,26.83
2019-04-05T16:40:26.843Z,31.87
2019-04-05T16:43:02.419Z,29.13
2019-04-05T16:45:25.281Z,34.73
2019-04-05T16:47:54.058Z,34.17
2019-04-05T16:50:22.275Z,32.37
2019-04-05T16:52:52.091Z,32.67
2019-04-05T16:55:20.549Z,34.60
2019-04-05T16:57:48.830Z,39.60
2019-04-05T17:00:17.557Z,34.33
2019-04-05T17:02:46.126Z,34.00
2019-04-05T17:05:15.571Z,37.47
2019-04-05T17:07:43.678Z,31.63
2019-04-05T17:10:12.050Z,35.03
2019-04-05T17:12:40.318Z,34.80
2019-04-05T17:15:08.721Z,34.30
2019-04-05T17:17:39.834Z,35.83
2019-04-05T17:20:08.307Z,37.43
2019-04-05T17:22:37.123Z,35.17
2019-04-05T17:25:06.847Z,37.03
2019-04-05T17:27:35.619Z,31.73
2019-04-05T17:30:07.306Z,35.00
2019-04-05T17:32:35.785Z,36.03
2019-04-05T17:35:04.750Z,39.83
2019-04-05T17:37:33.493Z,43.67
2019-04-05T17:40:02.090Z,35.07
2019-04-05T17:42:30.765Z,36.33
2019-04-05T17:44:59.039Z,36.50
2019-04-05T17:47:27.668Z,34.20
2019-04-05T17:49:56.440Z,37.27
2019-04-05T17:52:24.685Z,39.60
2019-04-05T17:54:54.614Z,36.80
2019-04-05T17:57:23.013Z,42.63
2019-04-05T17:59:51.896Z,31.80
2019-04-05T18:02:20.682Z,40.80
2019-04-05T18:04:49.056Z,40.70
2019-04-05T18:07:17.442Z,41.70
2019-04-05T18:09:45.890Z,38.80
2019-04-05T18:12:14.153Z,40.90
2019-04-05T18:14:42.686Z,46.90
2019-04-05T18:17:11.221Z,49.70
2019-04-05T18:19:40.189Z,39.70
2019-04-05T18:22:08.577Z,43.80
2019-04-05T18:24:36.585Z,37.07
2019-04-05T18:27:04.952Z,40.43
2019-04-05T18:29:33.260Z,42.40
2019-04-05T18:32:01.656Z,44.77
2019-04-05T18:34:30.018Z,40.20
2019-04-05T18:36:58.602Z,45.97
2019-04-05T18:39:27.155Z,46.53
2019-04-05T18:41:55.311Z,39.87
2019-04-05T18:44:23.756Z,41.63
2019-04-05T18:46:51.998Z,41.57
2019-04-05T18:49:20.517Z,46.97
2019-04-05T18:51:48.522Z,44.00
2019-04-05T18:54:16.644Z,48.93
2019-04-05T18:56:44.669Z,41.67
2019-04-05T18:59:12.675Z,51.13
2019-04-05T19:01:40.702Z,44.37
2019-04-05T19:04:09.400Z,41.60
2019-04-05T19:06:38.228Z,43.50
2019-04-05T19:09:07.266Z,46.03
2019-04-05T19:11:36.258Z,45.90
2019-04-05T19:14:05.001Z,45.00
2019-04-05T19:16:33.800Z,46.60
2019-04-05T19:19:02.362Z,48.30
2019-04-05T19:21:30.858Z,50.47
2019-04-05T19:23:59.907Z,42.27
2019-04-05T19:26:28.319Z,48.93
2019-04-05T19:28:56.255Z,44.97
2019-04-05T19:48:54.340Z,47.30
2019-04-05T19:51:22.366Z,46.00
2019-04-05T19:54:00.671Z,51.53
2019-04-05T19:56:23.586Z,52.33
2019-04-05T19:58:51.909Z,51.67
2019-04-05T20:01:20.071Z,49.13
2019-04-05T20:03:48.255Z,48.37
2019-04-05T20:06:16.205Z,48.83
2019-04-05T20:08:44.630Z,49.97
2019-04-05T20:11:12.725Z,46.60
2019-04-05T20:13:40.919Z,51.07
2019-04-05T20:16:09.010Z,55.17
2019-04-05T20:18:37.230Z,50.73
2019-04-05T20:21:05.258Z,49.07
2019-04-05T20:23:33.203Z,53.87
2019-04-05T20:26:01.540Z,56.37
2019-04-05T20:28:29.579Z,45.40
2019-04-05T20:30:58.258Z,46.80
2019-04-05T20:33:26.579Z,51.47
2019-04-05T20:35:55.450Z,52.33
2019-04-05T20:38:23.705Z,46.73
2019-04-05T20:40:52.174Z,44.23
2019-04-05T20:43:20.641Z,51.40
2019-04-05T20:45:48.696Z,53.33
2019-04-05T20:48:17.155Z,47.80
2019-04-05T20:50:45.972Z,60.43
2019-04-05T20:53:14.416Z,53.47
2019-04-05T20:55:43.058Z,59.47
2019-04-05T20:58:11.086Z,61.37
2019-04-05T21:00:39.113Z,51.37
2019-04-05T21:03:07.533Z,62.57
2019-04-05T21:05:35.470Z,56.07
2019-04-05T21:08:03.721Z,53.97
2019-04-05T21:10:31.737Z,63.90
2019-04-05T21:12:59.765Z,58.13
2019-04-05T21:15:27.830Z,69.10
2019-04-05T21:17:55.748Z,65.50
2019-04-05T21:20:23.698Z,61.10
2019-04-05T21:22:51.705Z,69.40
2019-04-05T21:25:20.058Z,72.47
2019-04-05T21:27:48.485Z,66.73
2019-04-05T21:30:16.966Z,60.93
2019-04-05T21:32:44.972Z,65.83
2019-04-05T21:35:13.023Z,72.73
2019-04-05T21:37:41.320Z,63.20
2019-04-05T21:40:10.358Z,72.73
2019-04-05T21:42:38.750Z,63.87
2019-04-05T21:45:07.418Z,65.10
2019-04-05T21:47:35.674Z,64.23
2019-04-05T21:50:04.134Z,57.23
2019-04-05T21:52:32.693Z,60.50
2019-04-05T21:55:01.245Z,66.07
2019-04-05T21:57:29.934Z,59.53
2019-04-05T21:59:58.596Z,64.50
2019-04-05T22:02:27.212Z,62.10
2019-04-05T22:04:55.630Z,65.90
2019-04-05T22:07:23.701Z,65.53
2019-04-05T22:09:51.729Z,61.03
2019-04-05T22:12:20.155Z,75.70
2019-04-05T22:14:48.626Z,76.10
2019-04-05T22:17:19.028Z,65.97
2019-04-05T22:19:47.609Z,68.87
2019-04-05T22:22:16.041Z,75.60
2019-04-05T22:24:44.205Z,73.73
2019-04-05T22:27:12.290Z,75.87
2019-04-05T22:29:40.714Z,69.63
2019-04-05T22:32:08.859Z,75.33
2019-04-05T22:34:37.373Z,69.63
2019-04-05T22:37:05.598Z,74.90
2019-04-05T22:39:35.166Z,71.50
2019-04-05T22:42:03.587Z,71.67
2019-04-05T22:44:38.057Z,81.27
2019-04-05T22:47:02.172Z,68.73
2019-04-05T22:49:30.316Z,67.23
2019-04-05T22:51:58.726Z,80.20
2019-04-05T22:54:27.609Z,72.63
2019-04-05T22:56:55.962Z,85.20
2019-04-05T22:59:24.382Z,79.03
2019-04-05T23:01:52.720Z,72.47
2019-04-05T23:04:21.270Z,80.80
2019-04-05T23:06:50.709Z,75.50
2019-04-05T23:09:19.106Z,77.40
2019-04-05T23:11:47.669Z,84.43
2019-04-05T23:14:16.114Z,66.83
2019-04-05T23:16:44.606Z,70.90
2019-04-05T23:19:12.881Z,66.50
2019-04-05T23:21:41.422Z,68.63
2019-04-05T23:24:09.477Z,74.23
2019-04-05T23:26:38.286Z,70.93
2019-04-05T23:29:06.502Z,71.03
2019-04-05T23:31:35.564Z,72.43
2019-04-05T23:34:03.728Z,68.17
2019-04-05T23:36:32.134Z,72.57
2019-04-05T23:39:00.693Z,69.70
2019-04-05T23:41:28.859Z,66.57
2019-04-05T23:43:57.283Z,75.10
2019-04-05T23:46:26.781Z,73.00
2019-04-05T23:48:55.001Z,85.57
2019-04-05T23:51:23.236Z,89.37
2019-04-05T23:53:51.892Z,77.63
2019-04-05T23:56:20.389Z,82.50
2019-04-05T23:58:48.834Z,86.73
